SQ5ANT-1 Weather Reports


Display with metric or nautical units.
time (UTC)temp
F
wind
direction
speed
MPH
gust
MPH
rain 1hr
in
rain 24hr
in
rain mn
in
humidity
%
barometer
mb
20260905231010 57 0.0 0.0 0.00 0.00 0.00 85 1002.3
20260905225014 57 0.0 0.0 0.00 0.00 0.00 84 1002.2
20260905223009 57 0.0 0.0 0.00 0.00 0.00 83 1002.1
20260905222011 58 0.0 0.0 0.00 0.00 0.00 82 1002.0
20260905221009 58 0.0 0.0 0.00 0.00 0.00 81 1001.9
20260905215009 58 0.0 0.0 0.00 0.00 0.00 81 1001.8
20260905205016 58 0.0 0.0 0.00 0.00 0.00 81 1001.4
20260905204015 58 0.0 0.0 0.00 0.00 0.00 82 1001.4
20260905203009 58 0.0 0.0 0.00 0.00 0.00 82 1001.4
20260905201010 57 0.0 0.0 0.00 0.00 0.00 82 1001.2
20260905195012 57 0.0 0.0 0.00 0.00 0.00 82 1001.2
20260905194011 57 0.0 0.0 0.00 0.00 0.00 81 1001.3
20260905192015 57 0.0 0.0 0.00 0.00 0.00 80 1001.4
20260905191012 57 0.0 0.0 0.00 0.00 0.00 79 1001.5
20260905185017 57 0.0 0.0 0.00 0.00 0.00 78 1001.6
20260905183016 57 0.0 0.0 0.00 0.00 0.00 77 1001.8
20260905182013 56 0.0 0.0 0.00 0.00 0.00 77 1001.9
20260905180011 56 0.0 0.0 0.00 0.00 0.00 80 1002.0
20260905175012 56 0.0 0.0 0.00 0.00 0.00 80 1002.0
20260905174008 56 0.0 0.0 0.00 0.00 0.00 88 1001.5
20260905172016 56 0.0 0.0 0.00 0.00 0.00 90 1001.3
20260905171015 57 0.0 0.0 0.00 0.00 0.00 90 1001.2
20260905161013 61 0.0 0.0 0.00 0.00 0.00 70 1000.8
20260905155011 62 0.0 0.0 0.00 0.00 0.00 67 1000.6
20260905151016 65 0.0 0.0 0.00 0.00 0.00 59 1000.2
20260905150012 65 0.0 0.0 0.00 0.00 0.00 59 1000.2
20260905143016 67 0.0 0.0 0.00 0.00 0.00 52 1000.2
20260905141013 68 0.0 0.0 0.00 0.00 0.00 53 1000.1
20260905135012 68 0.0 0.0 0.00 0.00 0.00 54 1000.0
20260905134015 68 0.0 0.0 0.00 0.00 0.00 55 999.8
20260905133013 68 0.0 0.0 0.00 0.00 0.00 55 999.8
20260905120008 67 0.0 0.0 0.00 0.00 0.00 57 999.6
20260905114013 66 0.0 0.0 0.00 0.00 0.00 58 999.8
20260905113017 66 0.0 0.0 0.00 0.00 0.00 58 999.8
20260905105014 65 0.0 0.0 0.00 0.00 0.00 62 999.7
20260905103016 65 0.0 0.0 0.00 0.00 0.00 63 999.6
20260905102008 64 0.0 0.0 0.00 0.00 0.00 65 999.6
20260905101014 64 0.0 0.0 0.00 0.00 0.00 67 999.5
20260905095009 64 0.0 0.0 0.00 0.00 0.00 68 999.4
20260905094013 63 0.0 0.0 0.00 0.00 0.00 70 999.4
20260905093013 63 0.0 0.0 0.00 0.00 0.00 70 999.4
20260905091008 63 0.0 0.0 0.00 0.00 0.00 72 999.2
20260905085015 63 0.0 0.0 0.00 0.00 0.00 73 999.0
20260905083014 64 0.0 0.0 0.00 0.00 0.00 71 998.9
20260905081014 64 0.0 0.0 0.00 0.00 0.00 73 998.4
20260905080012 64 0.0 0.0 0.00 0.00 0.00 73 998.4
20260905075012 63 0.0 0.0 0.00 0.00 0.00 73 998.3
20260905074008 63 0.0 0.0 0.00 0.00 0.00 73 998.3
20260905073013 63 0.0 0.0 0.00 0.00 0.00 73 998.3
20260905071012 62 0.0 0.0 0.00 0.00 0.00 74 998.0
20260905070009 62 0.0 0.0 0.00 0.00 0.00 74 998.0
20260905064013 62 0.0 0.0 0.00 0.00 0.00 78 997.4
20260905061012 62 0.0 0.0 0.00 0.00 0.00 81 996.8
20260905055010 61 0.0 0.0 0.00 0.00 0.00 82 996.7
20260905054014 61 0.0 0.0 0.00 0.00 0.00 80 996.4
20260905053010 61 0.0 0.0 0.00 0.00 0.00 80 996.4
20260905041015 62 0.0 0.0 0.00 0.00 0.00 83 995.2
20260905040010 62 0.0 0.0 0.00 0.00 0.00 83 995.2
20260905034018 62 0.0 0.0 0.00 0.00 0.00 84 994.7
20260905030027 62 0.0 0.0 0.00 0.00 0.00 84 994.3
20260905025017 62 0.0 0.0 0.00 0.00 0.00 84 994.2
20260905023014 62 0.0 0.0 0.00 0.00 0.00 83 994.5
20260905021012 62 0.0 0.0 0.00 0.00 0.00 82 994.1
20260905015012 62 0.0 0.0 0.00 0.00 0.00 83 994.0
20260905012010 63 0.0 0.0 0.00 0.00 0.00 86 994.0
20260905010015 63 0.0 0.0 0.00 0.00 0.00 87 994.0
20260905003016 63 0.0 0.0 0.00 0.00 0.00 87 993.9
20260904234016 63 0.0 0.0 0.00 0.00 0.00 85 993.7